Time;durP1;ratioP1;P1;durP2;ratioP2;P2;SDS_P1;SDS_P2;PMS_P1;PMS_P2;Temp;Humidity;BMP_temperature;BMP_pressure;BME280_temperature;BME280_humidity;BME280_pressure;Samples;Min_cycle;Max_cycle;Signal;HPM_P1;HPM_P2
2022/06/21 00:02:15;;;;;;;2.90;1.38;;;20.60;57.10;;;;;;10046933;28;20262;-61
2022/06/21 00:07:10;;;;;;;1.90;1.40;;;20.50;57.10;;;;;;10054662;28;20064;-62
2022/06/21 00:12:01;;;;;;;2.67;1.17;;;20.30;57.70;;;;;;10054004;28;20088;-63
2022/06/21 00:16:51;;;;;;;3.10;1.42;;;20.50;57.40;;;;;;10055175;28;20065;-62
2022/06/21 00:21:43;;;;;;;2.85;1.27;;;20.40;57.40;;;;;;10054567;28;20049;-62
2022/06/21 00:26:33;;;;;;;2.42;1.38;;;20.30;57.60;;;;;;10053735;28;20473;-61
2022/06/21 00:31:35;;;;;;;1.13;1.02;;;20.30;57.90;;;;;;10053191;28;20049;-63
2022/06/21 00:36:30;;;;;;;3.92;1.38;;;20.60;57.60;;;;;;10052918;28;20491;-62
2022/06/21 00:41:35;;;;;;;2.80;1.43;;;20.30;57.90;;;;;;10052962;28;20021;-63
2022/06/21 00:46:54;;;;;;;2.60;1.58;;;20.30;58.10;;;;;;10053838;28;20443;-63
2022/06/21 00:51:47;;;;;;;5.22;2.83;;;20.30;58.30;;;;;;10052790;28;20184;-62
2022/06/21 00:56:55;;;;;;;2.30;1.83;;;20.20;58.10;;;;;;10052491;28;20098;-62
2022/06/21 01:01:46;;;;;;;3.13;1.63;;;19.90;58.90;;;;;;10049022;28;20317;-61
2022/06/21 01:06:42;;;;;;;2.45;1.65;;;20.00;58.70;;;;;;10052650;28;20103;-61
2022/06/21 01:11:37;;;;;;;;;;;20.00;58.60;;;;;;10051834;28;20079;-63
2022/06/21 01:16:31;;;;;;;3.75;1.70;;;20.20;58.50;;;;;;10051794;28;19917;-62
2022/06/21 01:21:22;;;;;;;1.80;1.60;;;20.20;58.30;;;;;;10051670;28;20091;-62
2022/06/21 01:26:43;;;;;;;3.75;1.70;;;20.00;58.70;;;;;;10052109;28;20075;-63
2022/06/21 01:31:34;;;;;;;2.80;1.38;;;20.10;58.80;;;;;;10042731;28;20423;-62
2022/06/21 01:36:31;;;;;;;3.70;1.85;;;19.60;59.70;;;;;;10053203;28;20036;-62
2022/06/21 01:41:27;;;;;;;3.47;1.60;;;19.70;59.40;;;;;;10051695;28;20021;-61
2022/06/21 01:46:21;;;;;;;3.35;1.80;;;19.70;59.60;;;;;;10051642;28;20569;-62
2022/06/21 01:51:23;;;;;;;5.40;1.90;;;19.80;59.60;;;;;;10051617;28;20273;-63
2022/06/21 01:56:17;;;;;;;1.70;1.50;;;19.60;60.00;;;;;;10051310;28;20049;-63
2022/06/21 02:01:42;;;;;;;3.05;1.58;;;19.70;59.90;;;;;;10050706;28;20017;-63
2022/06/21 02:06:37;;;;;;;1.42;1.17;;;19.60;60.20;;;;;;10037427;28;20037;-62
2022/06/21 02:11:42;;;;;;;1.25;1.13;;;19.60;60.40;;;;;;10058655;28;20021;-62
2022/06/21 02:16:34;;;;;;;4.07;3.37;;;19.70;60.40;;;;;;10058960;28;20508;-63
2022/06/21 02:21:32;;;;;;;5.75;4.68;;;19.60;60.40;;;;;;10058935;28;20024;-62
2022/06/21 02:26:25;;;;;;;6.47;4.47;;;19.60;60.50;;;;;;10058006;28;20490;-63
2022/06/21 02:31:16;;;;;;;5.63;4.45;;;19.70;60.60;;;;;;10057732;28;20626;-63
2022/06/21 02:36:15;;;;;;;4.40;3.67;;;19.60;60.80;;;;;;10057554;28;20341;-62
2022/06/21 02:41:10;;;;;;;3.65;3.17;;;19.60;61.00;;;;;;10044104;28;20557;-62
2022/06/21 02:46:12;;;;;;;2.60;2.35;;;19.60;61.10;;;;;;10057035;28;20060;-63
2022/06/21 02:51:08;;;;;;;1.70;1.40;;;19.70;61.10;;;;;;10057590;28;20052;-65
2022/06/21 02:56:08;;;;;;;;;;;19.60;61.30;;;;;;10057680;28;20037;-61
2022/06/21 03:01:02;;;;;;;1.92;1.38;;;19.30;62.00;;;;;;10056934;28;19908;-63
2022/06/21 03:05:56;;;;;;;2.58;1.17;;;19.40;61.80;;;;;;10055278;28;20488;-63
2022/06/21 03:10:50;;;;;;;1.52;1.42;;;19.50;61.60;;;;;;10057087;28;20033;-61
2022/06/21 03:15:45;;;;;;;2.35;1.35;;;19.60;61.60;;;;;;10055871;28;20029;-65
2022/06/21 03:20:36;;;;;;;2.25;1.27;;;19.60;61.70;;;;;;10037571;28;20109;-62
2022/06/21 03:25:32;;;;;;;3.88;1.85;;;19.20;62.90;;;;;;10056406;28;20604;-62
2022/06/21 03:30:30;;;;;;;1.60;0.90;;;19.20;62.80;;;;;;10054309;28;20307;-62
2022/06/21 03:35:22;;;;;;;1.60;1.30;;;19.30;62.70;;;;;;10057423;28;20036;-62
2022/06/21 03:45:35;;;;;;;1.77;1.08;;;19.00;63.20;;;;;;10055245;28;20530;-64
2022/06/21 03:50:38;;;;;;;2.05;1.20;;;19.00;63.40;;;;;;10054712;28;20393;-62
2022/06/21 03:55:53;;;;;;;1.70;1.00;;;19.00;62.90;;;;;;10055288;28;20029;-63
2022/06/21 04:01:07;;;;;;;2.63;1.10;;;19.10;63.30;;;;;;10049025;28;20068;-63
2022/06/21 04:06:10;;;;;;;1.58;0.85;;;18.80;63.50;;;;;;10054653;28;20112;-62
2022/06/21 04:11:11;;;;;;;1.80;1.40;;;19.00;63.30;;;;;;10054095;28;20086;-62
2022/06/21 04:16:11;;;;;;;4.40;1.70;;;19.10;63.20;;;;;;10053840;28;20116;-63
2022/06/21 04:21:14;;;;;;;1.95;0.93;;;18.90;63.60;;;;;;10052606;28;20029;-63
2022/06/21 04:26:11;;;;;;;1.50;1.00;;;19.00;63.60;;;;;;10053544;28;20491;-62
2022/06/21 04:31:23;;;;;;;3.63;1.00;;;18.90;63.60;;;;;;10052401;28;20077;-63
2022/06/21 04:36:21;;;;;;;0.98;0.85;;;19.00;63.70;;;;;;10027790;28;20041;-63
2022/06/21 04:41:22;;;;;;;1.10;1.00;;;19.00;63.70;;;;;;10052486;28;20088;-63
2022/06/21 04:46:26;;;;;;;3.03;1.35;;;19.00;63.70;;;;;;10042548;28;20025;-64
2022/06/21 04:51:20;;;;;;;2.33;1.20;;;18.80;64.00;;;;;;10044300;28;20017;-64
2022/06/21 04:56:36;;;;;;;1.15;1.05;;;18.80;64.10;;;;;;10052821;28;20383;-63
2022/06/21 05:01:30;;;;;;;1.30;1.00;;;18.90;64.60;;;;;;10052856;28;20024;-65
2022/06/21 05:06:21;;;;;;;0.88;0.88;;;19.20;63.80;;;;;;10050820;28;20120;-63
2022/06/21 05:11:13;;;;;;;1.70;1.23;;;19.10;64.20;;;;;;10051787;28;20044;-63
2022/06/21 05:16:17;;;;;;;1.48;1.25;;;19.20;64.20;;;;;;10051767;28;20411;-62
2022/06/21 05:21:16;;;;;;;1.10;1.00;;;19.20;64.30;;;;;;10052680;28;20069;-63
2022/06/21 05:26:23;;;;;;;2.08;1.63;;;19.60;64.00;;;;;;10034510;28;20109;-63
2022/06/21 05:31:37;;;;;;;2.78;1.65;;;19.60;64.30;;;;;;10051782;28;20053;-64
2022/06/21 05:36:38;;;;;;;1.92;1.45;;;19.90;63.60;;;;;;10050142;28;20171;-64
2022/06/21 05:41:51;;;;;;;1.70;1.25;;;19.90;63.80;;;;;;10055244;28;20060;-66
2022/06/21 05:46:53;;;;;;;1.83;1.55;;;19.70;64.10;;;;;;10059648;28;20025;-63
2022/06/21 05:51:44;;;;;;;2.25;1.10;;;19.50;64.10;;;;;;10059304;28;20098;-63
2022/06/21 05:56:37;;;;;;;2.13;1.40;;;19.40;64.60;;;;;;10059157;28;20434;-63
2022/06/21 06:01:35;;;;;;;2.85;1.42;;;19.60;64.50;;;;;;10058849;28;20167;-63
2022/06/21 06:06:34;;;;;;;2.88;1.65;;;20.00;64.00;;;;;;10059533;28;20514;-64
2022/06/21 06:16:45;;;;;;;5.80;1.13;;;20.40;63.70;;;;;;10059127;28;20037;-65
2022/06/21 06:21:41;;;;;;;1.35;0.88;;;20.60;63.60;;;;;;10059181;28;20025;-63
2022/06/21 06:26:37;;;;;;;1.85;1.30;;;20.70;63.30;;;;;;10059072;28;20036;-64
2022/06/21 06:31:47;;;;;;;2.45;1.17;;;20.50;63.80;;;;;;10057689;28;20144;-66
2022/06/21 06:36:57;;;;;;;2.08;0.90;;;20.50;63.70;;;;;;10054380;28;20029;-69
2022/06/21 06:42:06;;;;;;;1.83;1.48;;;20.10;64.50;;;;;;10060577;28;20021;-66
2022/06/21 06:47:01;;;;;;;1.92;1.73;;;20.10;64.70;;;;;;10058568;28;20030;-64
2022/06/21 06:52:03;;;;;;;5.17;1.53;;;20.10;64.50;;;;;;10057521;28;20021;-65
2022/06/21 06:57:24;;;;;;;2.58;1.40;;;20.30;64.10;;;;;;10058070;28;20273;-66
2022/06/21 07:02:21;;;;;;;3.78;1.52;;;20.30;64.00;;;;;;10051300;28;20029;-67
2022/06/21 07:07:41;;;;;;;3.58;1.30;;;20.20;64.20;;;;;;10057416;28;20089;-66
2022/06/21 07:12:32;;;;;;;3.78;1.50;;;19.90;65.00;;;;;;10031861;28;20041;-66
2022/06/21 07:17:36;;;;;;;2.45;1.30;;;20.00;65.10;;;;;;10058614;28;20029;-67
2022/06/21 07:22:31;;;;;;;2.35;1.40;;;20.20;64.90;;;;;;10055186;28;20021;-67
2022/06/21 07:27:23;;;;;;;;;;;20.10;65.00;;;;;;10055831;28;20017;-66
2022/06/21 07:32:20;;;;;;;2.58;1.65;;;20.30;65.20;;;;;;10054807;28;19974;-68
2022/06/21 07:37:18;;;;;;;4.28;1.63;;;20.20;65.20;;;;;;10055237;28;20172;-67
2022/06/21 07:42:22;;;;;;;2.00;1.35;;;20.20;65.30;;;;;;10054723;28;20041;-65
2022/06/21 07:47:21;;;;;;;3.10;1.40;;;20.40;65.30;;;;;;10053670;28;20029;-64
2022/06/21 07:52:22;;;;;;;1.90;1.45;;;20.50;65.40;;;;;;10057859;28;20026;-65
2022/06/21 07:57:37;;;;;;;2.00;1.67;;;20.30;65.60;;;;;;10038868;28;20109;-65
2022/06/21 08:07:56;;;;;;;2.67;1.40;;;20.50;65.60;;;;;;10057557;28;20515;-65
2022/06/21 08:12:48;;;;;;;7.50;1.83;;;20.70;65.10;;;;;;10059435;28;20042;-67
2022/06/21 08:18:02;;;;;;;2.30;1.50;;;20.50;65.20;;;;;;10060799;28;20026;-68
2022/06/21 08:23:08;;;;;;;2.78;1.73;;;20.90;65.40;;;;;;10052364;28;20057;-70
2022/06/21 08:28:21;;;;;;;3.33;1.65;;;21.00;65.00;;;;;;10055021;28;20096;-68
2022/06/21 08:33:18;;;;;;;2.80;1.42;;;21.20;64.70;;;;;;10052657;28;20590;-66
2022/06/21 08:38:20;;;;;;;4.70;2.30;;;21.60;64.50;;;;;;10050758;28;20400;-65
2022/06/21 08:43:47;;;;;;;3.28;1.88;;;21.60;64.70;;;;;;10052003;28;20021;-67
2022/06/21 08:49:20;;;;;;;3.90;2.10;;;21.50;64.90;;;;;;10053174;28;20112;-66
2022/06/21 08:54:35;;;;;;;8.55;3.22;;;21.70;64.90;;;;;;10034697;28;20075;-64
2022/06/21 09:00:02;;;;;;;2.65;1.98;;;22.00;64.70;;;;;;10051993;28;20317;-67
2022/06/21 09:05:09;;;;;;;2.67;1.58;;;22.00;64.50;;;;;;10021330;28;20029;-67
2022/06/21 09:10:18;;;;;;;2.42;1.80;;;22.30;64.30;;;;;;10050143;28;20071;-65
2022/06/21 09:15:53;;;;;;;4.85;2.03;;;22.90;63.70;;;;;;10049894;28;20087;-67
2022/06/21 09:20:55;;;;;;;6.22;2.47;;;23.10;63.40;;;;;;9932775;28;20038;-67
2022/06/21 09:26:03;;;;;;;7.60;2.20;;;23.10;63.60;;;;;;10052667;28;20034;-65
2022/06/21 09:31:26;;;;;;;5.85;2.90;;;23.10;63.60;;;;;;10048823;28;20103;-64
2022/06/21 09:36:58;;;;;;;2.47;2.05;;;23.30;63.40;;;;;;10028866;28;20128;-68
2022/06/21 09:41:58;;;;;;;5.85;2.83;;;23.30;63.60;;;;;;9958078;28;20030;-65
2022/06/21 09:46:53;;;;;;;2.75;2.25;;;23.60;63.20;;;;;;10031352;28;20046;-65
2022/06/21 09:52:09;;;;;;;3.72;2.38;;;23.70;63.10;;;;;;10051888;28;20634;-69
2022/06/21 09:57:11;;;;;;;6.05;2.03;;;23.90;63.10;;;;;;10053161;28;20413;-66
2022/06/21 10:02:29;;;;;;;4.00;3.03;;;24.10;62.90;;;;;;10051703;28;20404;-67
2022/06/21 10:07:41;;;;;;;3.60;2.28;;;23.90;63.40;;;;;;10044752;28;20078;-64
2022/06/21 10:12:46;;;;;;;2.75;2.42;;;23.90;63.60;;;;;;10054232;28;20034;-65
2022/06/21 10:17:37;;;;;;;3.38;2.38;;;24.00;63.80;;;;;;10050793;28;20428;-68
2022/06/21 10:23:09;;;;;;;5.32;2.92;;;24.10;63.70;;;;;;10050353;28;20075;-69
2022/06/21 10:28:05;;;;;;;3.80;2.92;;;24.60;63.50;;;;;;10053156;28;20040;-65
2022/06/21 10:33:12;;;;;;;4.30;3.45;;;24.90;62.80;;;;;;10057108;28;20045;-65
2022/06/21 10:38:27;;;;;;;5.78;4.50;;;25.40;62.50;;;;;;10055502;28;20268;-68
2022/06/21 10:43:42;;;;;;;3.55;2.70;;;25.50;62.30;;;;;;10054820;28;20028;-63
2022/06/21 10:49:03;;;;;;;5.20;2.67;;;25.80;62.40;;;;;;10055027;28;20112;-66
2022/06/21 10:54:15;;;;;;;6.70;3.08;;;25.70;62.40;;;;;;10048535;28;20447;-66
2022/06/21 10:59:26;;;;;;;5.32;3.90;;;25.60;63.00;;;;;;10056284;28;20391;-67
2022/06/21 11:04:46;;;;;;;5.72;2.83;;;25.90;62.70;;;;;;10057168;28;20392;-66
2022/06/21 11:09:56;;;;;;;3.15;2.67;;;26.10;62.50;;;;;;10057532;28;20492;-66
2022/06/21 11:15:02;;;;;;;5.20;3.38;;;26.40;62.10;;;;;;10057094;28;20095;-66
2022/06/21 11:20:11;;;;;;;3.80;3.40;;;26.40;62.60;;;;;;10057074;28;20361;-67
2022/06/21 11:25:14;;;;;;;3.88;2.80;;;26.50;62.30;;;;;;10052648;28;20032;-66
2022/06/21 11:30:06;;;;;;;5.80;3.28;;;26.40;62.30;;;;;;10056686;28;20203;-66
2022/06/21 11:35:25;;;;;;;4.65;3.22;;;26.20;62.40;;;;;;10055645;28;20030;-66
2022/06/21 11:40:34;;;;;;;5.65;3.38;;;26.30;62.20;;;;;;10054967;28;20087;-68
2022/06/21 11:45:49;;;;;;;5.57;2.75;;;26.80;61.90;;;;;;10055984;28;20024;-65
2022/06/21 11:51:10;;;;;;;6.47;3.00;;;27.40;61.30;;;;;;10056279;28;20041;-65
2022/06/21 11:56:12;;;;;;;5.40;3.45;;;27.60;61.20;;;;;;10053183;28;20030;-64
2022/06/21 12:01:25;;;;;;;4.95;3.25;;;27.50;60.90;;;;;;10056379;28;20358;-66
2022/06/21 12:06:35;;;;;;;5.13;3.40;;;27.10;61.50;;;;;;10057485;28;20029;-66
2022/06/21 12:11:41;;;;;;;4.53;3.85;;;27.30;61.80;;;;;;10054104;28;20256;-65
2022/06/21 12:16:37;;;;;;;5.60;4.03;;;28.10;61.00;;;;;;10052855;28;20488;-65
2022/06/21 12:21:32;;;;;;;4.15;3.35;;;28.60;60.90;;;;;;10054062;28;20052;-65
2022/06/21 12:26:25;;;;;;;3.80;2.97;;;28.30;60.90;;;;;;10052391;28;20554;-63
2022/06/21 12:31:33;;;;;;;4.47;2.70;;;28.50;60.70;;;;;;10034040;28;20037;-65
2022/06/21 12:36:46;;;;;;;4.30;2.35;;;28.90;60.40;;;;;;10049644;28;20049;-64
2022/06/21 12:41:36;;;;;;;;;;;29.60;59.40;;;;;;10050970;28;20032;-64
2022/06/21 12:46:50;;;;;;;3.60;2.92;;;29.50;59.00;;;;;;10034974;28;19921;-64
2022/06/21 12:51:58;;;;;;;5.25;2.70;;;29.70;60.40;;;;;;10051874;28;20013;-63
2022/06/21 12:57:01;;;;;;;5.30;2.80;;;31.00;59.50;;;;;;10051864;28;20367;-64
2022/06/21 13:02:22;;;;;;;4.75;2.95;;;31.80;57.50;;;;;;10052206;28;20457;-65
2022/06/21 13:07:22;;;;;;;9.02;3.33;;;32.60;56.10;;;;;;10051457;28;20581;-63
2022/06/21 13:12:16;;;;;;;3.85;2.60;;;33.30;55.70;;;;;;10042947;28;20334;-65
2022/06/21 13:17:31;;;;;;;4.60;2.70;;;33.70;54.70;;;;;;10052238;28;20025;-67
2022/06/21 13:22:25;;;;;;;6.20;3.30;;;35.00;53.20;;;;;;10031265;28;20087;-65
2022/06/21 13:27:21;;;;;;;2.75;2.50;;;34.90;52.20;;;;;;10052042;28;20113;-63
2022/06/21 13:32:23;;;;;;;5.68;3.15;;;34.90;51.70;;;;;;10054470;28;20199;-65
2022/06/21 13:37:17;;;;;;;5.95;3.72;;;35.80;50.90;;;;;;10053793;28;20092;-63
2022/06/21 13:42:37;;;;;;;5.57;3.10;;;35.80;49.60;;;;;;10053407;28;20112;-66
2022/06/21 13:47:56;;;;;;;6.55;2.85;;;36.00;48.80;;;;;;10048850;28;20049;-63
2022/06/21 13:52:50;;;;;;;4.32;2.83;;;35.30;47.60;;;;;;10039248;28;20040;-64
2022/06/21 13:58:08;;;;;;;3.25;2.45;;;36.10;48.50;;;;;;10051709;28;20432;-66
2022/06/21 14:03:53;;;;;;;4.22;3.25;;;37.10;47.10;;;;;;10053261;28;20315;-65
2022/06/21 14:09:00;;;;;;;5.10;3.30;;;37.50;45.30;;;;;;9946955;28;20511;-64
2022/06/21 14:14:06;;;;;;;3.35;3.05;;;37.30;46.60;;;;;;10056037;28;20033;-63
2022/06/21 14:19:07;;;;;;;3.30;3.00;;;37.50;45.70;;;;;;10056845;28;20028;-64
2022/06/21 14:24:03;;;;;;;4.68;2.80;;;37.50;45.50;;;;;;10057033;28;20504;-65
2022/06/21 14:28:56;;;;;;;5.82;3.10;;;37.40;44.80;;;;;;10056826;28;20113;-66
2022/06/21 14:34:15;;;;;;;3.50;3.20;;;37.90;44.50;;;;;;10056154;28;20029;-66
2022/06/21 14:39:15;;;;;;;2.90;2.25;;;37.80;44.40;;;;;;10039261;28;20075;-64
2022/06/21 14:44:13;;;;;;;3.20;2.45;;;37.30;45.10;;;;;;10056345;28;20071;-65
2022/06/21 14:49:14;;;;;;;3.58;2.55;;;37.90;44.20;;;;;;10056668;28;20034;-63
2022/06/21 14:54:10;;;;;;;4.90;3.60;;;38.00;43.40;;;;;;10054957;28;20041;-64
2022/06/21 14:59:00;;;;;;;5.35;3.25;;;38.20;43.00;;;;;;10057588;28;20277;-67
2022/06/21 15:04:00;;;;;;;4.28;2.95;;;37.80;43.40;;;;;;10055158;28;20269;-65
2022/06/21 15:09:15;;;;;;;3.03;2.83;;;38.40;42.30;;;;;;10055435;28;20027;-63
2022/06/21 15:14:08;;;;;;;5.78;2.85;;;38.40;42.80;;;;;;10053512;28;20345;-66
2022/06/21 15:24:23;;;;;;;3.38;2.38;;;38.50;42.00;;;;;;10054101;28;20151;-65
2022/06/21 15:29:27;;;;;;;3.65;3.15;;;38.50;42.00;;;;;;10033852;28;20136;-64
2022/06/21 15:34:33;;;;;;;4.90;2.90;;;37.90;42.80;;;;;;10054378;28;20033;-64
2022/06/21 15:39:40;;;;;;;3.58;2.78;;;38.00;42.10;;;;;;10053222;28;20033;-66
2022/06/21 15:44:48;;;;;;;4.25;2.50;;;37.60;42.50;;;;;;10054074;28;20037;-62
2022/06/21 15:55:24;;;;;;;5.45;2.90;;;38.10;42.30;;;;;;10049332;28;20037;-64
2022/06/21 16:00:28;;;;;;;5.15;3.08;;;38.10;41.50;;;;;;9989573;28;20034;-63
2022/06/21 16:05:56;;;;;;;2.83;2.40;;;38.30;42.10;;;;;;10052041;28;20052;-63
2022/06/21 16:10:48;;;;;;;3.38;2.65;;;38.30;41.40;;;;;;10032093;28;20056;-63
2022/06/21 16:15:48;;;;;;;5.40;2.78;;;38.50;41.80;;;;;;10051727;28;20037;-63
2022/06/21 16:20:43;;;;;;;4.50;2.78;;;39.40;41.20;;;;;;10050914;28;20076;-65
2022/06/21 16:25:52;;;;;;;4.28;2.75;;;39.60;41.20;;;;;;10050709;28;20392;-63
2022/06/21 16:36:26;;;;;;;5.88;3.33;;;37.60;41.90;;;;;;10053710;28;20630;-63
2022/06/21 16:46:52;;;;;;;4.65;3.38;;;37.00;42.20;;;;;;10044820;28;19931;-62
2022/06/21 16:51:47;;;;;;;5.55;3.15;;;36.90;42.20;;;;;;10051865;28;20036;-62
2022/06/21 16:56:45;;;;;;;4.53;3.05;;;37.40;42.50;;;;;;10052943;28;20117;-63
2022/06/21 17:01:42;;;;;;;8.93;3.58;;;36.50;42.10;;;;;;10046466;28;20029;-62
2022/06/21 17:06:40;;;;;;;6.57;3.08;;;35.00;43.50;;;;;;10052072;28;20040;-63
2022/06/21 17:11:31;;;;;;;4.53;3.92;;;34.10;44.40;;;;;;10052340;28;20503;-64
2022/06/21 17:16:44;;;;;;;4.72;3.17;;;33.50;44.80;;;;;;10052983;28;20049;-63
2022/06/21 17:22:00;;;;;;;4.03;3.15;;;33.00;45.20;;;;;;10052006;28;20077;-64
2022/06/21 17:27:29;;;;;;;5.75;4.07;;;32.70;46.00;;;;;;10051780;28;20037;-62
2022/06/21 17:32:35;;;;;;;5.65;3.10;;;32.20;46.40;;;;;;10028905;28;20083;-63
2022/06/21 17:37:58;;;;;;;8.23;3.30;;;31.80;46.90;;;;;;10061240;28;20028;-63
2022/06/21 17:43:04;;;;;;;6.63;3.30;;;31.50;47.80;;;;;;10039292;28;20071;-62
2022/06/21 17:48:04;;;;;;;7.45;3.33;;;31.10;48.80;;;;;;10054708;28;20021;-63
2022/06/21 17:53:01;;;;;;;3.72;2.95;;;31.00;48.30;;;;;;10065237;28;20051;-64
2022/06/21 17:58:00;;;;;;;3.10;2.75;;;30.80;48.80;;;;;;10064355;28;20026;-63
2022/06/21 18:03:14;;;;;;;5.50;3.55;;;30.80;48.80;;;;;;10064636;28;20083;-62
2022/06/21 18:08:21;;;;;;;;;;;30.60;49.60;;;;;;10065752;28;20020;-62
2022/06/21 18:13:40;;;;;;;3.30;2.75;;;30.50;50.00;;;;;;10063048;28;19943;-64
2022/06/21 18:18:49;;;;;;;5.78;2.55;;;30.30;50.20;;;;;;10045391;28;20065;-61
2022/06/21 18:23:45;;;;;;;5.65;2.70;;;30.30;50.10;;;;;;10065132;28;20029;-62
2022/06/21 18:29:11;;;;;;;3.15;2.70;;;30.10;50.00;;;;;;10065124;28;20025;-62
2022/06/21 18:34:02;;;;;;;4.82;3.15;;;30.00;50.70;;;;;;10064393;28;20077;-62
2022/06/21 18:39:31;;;;;;;3.63;3.13;;;30.00;50.20;;;;;;10064902;28;20026;-63
2022/06/21 18:44:35;;;;;;;8.73;3.30;;;30.00;50.70;;;;;;10063320;28;20029;-62
2022/06/21 18:49:47;;;;;;;4.57;2.75;;;29.80;50.40;;;;;;10059057;28;20053;-63
2022/06/21 18:55:09;;;;;;;4.78;3.15;;;29.70;50.80;;;;;;10057718;28;20045;-64
2022/06/21 19:00:13;;;;;;;7.05;3.40;;;29.60;51.20;;;;;;10035689;28;20136;-65
2022/06/21 19:11:06;;;;;;;10.65;4.85;;;29.80;50.70;;;;;;10056362;28;20091;-63
2022/06/21 19:16:17;;;;;;;4.13;3.28;;;29.90;50.40;;;;;;10056918;28;20041;-63
2022/06/21 19:21:31;;;;;;;5.60;2.88;;;29.80;50.90;;;;;;10056070;28;20022;-61
2022/06/21 19:26:40;;;;;;;3.60;2.83;;;29.80;51.10;;;;;;10056088;28;20192;-63
2022/06/21 19:31:54;;;;;;;7.22;3.03;;;29.70;50.90;;;;;;10046906;28;20537;-63
2022/06/21 19:36:54;;;;;;;4.93;3.30;;;29.60;51.10;;;;;;10055524;28;20091;-63
2022/06/21 19:42:08;;;;;;;4.95;3.33;;;29.50;51.20;;;;;;10042967;28;20403;-63
2022/06/21 19:47:09;;;;;;;6.37;3.30;;;29.30;51.70;;;;;;10055364;28;20376;-63
2022/06/21 19:52:09;;;;;;;5.82;3.35;;;29.20;51.60;;;;;;10055462;28;20653;-64
2022/06/21 19:57:34;;;;;;;9.70;4.32;;;29.00;52.00;;;;;;10055729;28;20033;-62
2022/06/21 20:02:39;;;;;;;4.50;3.50;;;28.90;52.50;;;;;;10054879;28;20527;-62
2022/06/21 20:07:34;;;;;;;5.30;3.90;;;28.80;53.10;;;;;;10052086;28;20120;-63
2022/06/21 20:12:27;;;;;;;6.50;3.97;;;28.70;52.60;;;;;;10054925;28;20049;-62
2022/06/21 20:17:41;;;;;;;8.20;4.50;;;28.60;52.80;;;;;;10054501;28;20622;-62
2022/06/21 20:22:47;;;;;;;8.43;5.25;;;28.60;53.60;;;;;;10052605;28;20032;-63
2022/06/21 20:27:38;;;;;;;10.45;5.15;;;28.50;53.60;;;;;;10051909;28;20029;-63
2022/06/21 20:32:36;;;;;;;10.82;5.47;;;28.50;53.40;;;;;;10054494;28;20046;-63
2022/06/21 20:37:33;;;;;;;5.47;4.30;;;28.30;53.80;;;;;;10053379;28;20029;-62
2022/06/21 20:47:57;;;;;;;5.35;3.53;;;28.20;54.00;;;;;;10050786;28;20130;-65
2022/06/21 20:52:47;;;;;;;7.65;4.15;;;28.20;54.60;;;;;;10052857;28;20045;-61
2022/06/21 20:57:56;;;;;;;5.22;3.60;;;28.10;54.50;;;;;;10053082;28;20033;-62
2022/06/21 21:02:54;;;;;;;4.78;4.28;;;28.20;54.80;;;;;;10051850;28;20022;-63
2022/06/21 21:07:54;;;;;;;5.80;3.97;;;28.20;54.60;;;;;;10052467;28;20094;-64
2022/06/21 21:12:57;;;;;;;8.10;3.45;;;28.20;54.60;;;;;;10051115;28;20107;-61
2022/06/21 21:17:53;;;;;;;7.68;3.90;;;28.20;54.60;;;;;;10052112;28;20307;-62
2022/06/21 21:22:52;;;;;;;5.57;3.55;;;28.20;54.80;;;;;;10052696;28;20038;-63
2022/06/21 21:27:48;;;;;;;7.50;4.15;;;28.10;55.50;;;;;;10052558;28;20025;-63
2022/06/21 21:33:02;;;;;;;5.05;3.35;;;28.10;55.10;;;;;;10030870;28;20129;-63
2022/06/21 21:38:12;;;;;;;7.00;4.18;;;28.10;55.30;;;;;;10039899;28;20036;-62
2022/06/21 21:43:05;;;;;;;5.68;3.63;;;28.10;55.40;;;;;;10041641;28;20128;-64
2022/06/21 21:47:57;;;;;;;7.40;4.22;;;27.90;55.40;;;;;;10052298;28;20565;-62
2022/06/21 21:52:51;;;;;;;5.00;3.75;;;27.80;55.60;;;;;;10034005;28;20526;-61
2022/06/21 21:57:42;;;;;;;6.83;4.03;;;27.80;55.60;;;;;;10052088;28;20032;-63
2022/06/21 22:03:02;;;;;;;6.97;3.90;;;27.70;55.80;;;;;;10051383;28;20427;-63
2022/06/21 22:08:11;;;;;;;6.15;3.90;;;27.70;56.30;;;;;;10048252;28;20021;-62
2022/06/21 22:13:14;;;;;;;6.90;4.45;;;27.70;56.30;;;;;;10051257;28;20033;-62
2022/06/21 22:18:33;;;;;;;6.50;3.53;;;27.60;56.20;;;;;;10050826;28;20025;-61
2022/06/21 22:23:30;;;;;;;8.57;4.03;;;27.50;56.70;;;;;;10049176;28;20030;-63
2022/06/21 22:28:39;;;;;;;8.60;3.80;;;27.40;56.60;;;;;;10058185;28;20067;-63
2022/06/21 22:33:30;;;;;;;7.13;3.33;;;27.30;56.90;;;;;;10057537;28;20077;-62
2022/06/21 22:38:27;;;;;;;5.32;3.28;;;27.40;56.80;;;;;;10057237;28;20033;-64
2022/06/21 22:43:31;;;;;;;6.25;3.20;;;27.40;56.70;;;;;;10055545;28;20029;-64
2022/06/21 22:48:28;;;;;;;63.08;40.47;;;;;;;;;;10053110;28;20056;-66
2022/06/21 22:53:29;;;;;;;14.02;9.43;;;;;;;;;;10057030;28;20428;-65
2022/06/21 22:58:28;;;;;;;8.77;6.15;;;;;;;;;;10056353;28;20622;-68
2022/06/21 23:03:25;;;;;;;7.97;5.88;;;;;;;;;;10056331;28;20482;-66
2022/06/21 23:08:20;;;;;;;7.20;4.75;;;;;;;;;;10057804;28;20021;-69
2022/06/21 23:13:16;;;;;;;6.45;4.43;;;;;;;;;;10056214;28;20118;-67
2022/06/21 23:18:10;;;;;;;8.93;4.72;;;;;;;;;;10056155;28;20025;-67
2022/06/21 23:23:02;;;;;;;5.68;4.18;;;;;;;;;;10056005;28;20368;-69
2022/06/21 23:27:55;;;;;;;7.25;3.83;;;;;;;;;;10056068;28;20033;-66
2022/06/21 23:32:50;;;;;;;6.80;4.35;;;;;;;;;;10055560;28;20139;-66
2022/06/21 23:37:42;;;;;;;6.07;4.32;;;;;;;;;;10056130;28;20127;-65
2022/06/21 23:42:34;;;;;;;5.95;3.00;;;;;;;;;;10053513;28;20018;-64
2022/06/21 23:47:27;;;;;;;9.93;3.72;;;;;;;;;;10056119;28;20038;-65
2022/06/21 23:52:20;;;;;;;4.93;3.70;;;;;;;;;;10056017;28;20109;-68
2022/06/21 23:57:12;;;;;;;7.70;3.85;;;;;;;;;;10056065;28;20040;-65
